sensor_id;sensor_type;location;lat;lon;timestamp;P1;durP1;ratioP1;P2;durP2;ratioP2
20118;SDS011;10220;42.716;23.306;2022-10-31T00:02:16;2.22;;;1.67;;
20118;SDS011;10220;42.716;23.306;2022-10-31T00:04:41;4.15;;;1.65;;
20118;SDS011;10220;42.716;23.306;2022-10-31T00:07:07;1.75;;;1.55;;
20118;SDS011;10220;42.716;23.306;2022-10-31T00:09:32;3.53;;;1.95;;
20118;SDS011;10220;42.716;23.306;2022-10-31T00:11:58;2.03;;;1.52;;
20118;SDS011;10220;42.716;23.306;2022-10-31T00:14:23;3.03;;;1.83;;
20118;SDS011;10220;42.716;23.306;2022-10-31T00:16:48;5.72;;;2.10;;
20118;SDS011;10220;42.716;23.306;2022-10-31T00:19:14;6.55;;;1.98;;
20118;SDS011;10220;42.716;23.306;2022-10-31T00:21:39;3.05;;;1.83;;
20118;SDS011;10220;42.716;23.306;2022-10-31T00:24:05;1.48;;;1.38;;
20118;SDS011;10220;42.716;23.306;2022-10-31T00:26:31;3.42;;;2.17;;
20118;SDS011;10220;42.716;23.306;2022-10-31T00:28:57;3.95;;;1.50;;
20118;SDS011;10220;42.716;23.306;2022-10-31T00:31:23;4.32;;;2.00;;
20118;SDS011;10220;42.716;23.306;2022-10-31T00:33:48;2.58;;;2.00;;
20118;SDS011;10220;42.716;23.306;2022-10-31T00:36:15;2.25;;;1.88;;
20118;SDS011;10220;42.716;23.306;2022-10-31T00:38:43;3.90;;;2.42;;
20118;SDS011;10220;42.716;23.306;2022-10-31T00:41:10;3.13;;;2.05;;
20118;SDS011;10220;42.716;23.306;2022-10-31T00:43:36;2.65;;;1.88;;
20118;SDS011;10220;42.716;23.306;2022-10-31T00:46:02;4.45;;;2.53;;
20118;SDS011;10220;42.716;23.306;2022-10-31T00:48:27;2.55;;;1.73;;
20118;SDS011;10220;42.716;23.306;2022-10-31T00:50:53;3.17;;;1.75;;
20118;SDS011;10220;42.716;23.306;2022-10-31T00:53:18;3.17;;;2.15;;
20118;SDS011;10220;42.716;23.306;2022-10-31T00:55:44;2.05;;;1.77;;
20118;SDS011;10220;42.716;23.306;2022-10-31T00:58:09;3.83;;;2.28;;
20118;SDS011;10220;42.716;23.306;2022-10-31T01:00:35;2.80;;;1.70;;
20118;SDS011;10220;42.716;23.306;2022-10-31T01:03:00;3.97;;;2.67;;
20118;SDS011;10220;42.716;23.306;2022-10-31T01:05:26;4.63;;;1.92;;
20118;SDS011;10220;42.716;23.306;2022-10-31T01:07:51;2.90;;;1.80;;
20118;SDS011;10220;42.716;23.306;2022-10-31T01:10:17;3.90;;;1.80;;
20118;SDS011;10220;42.716;23.306;2022-10-31T01:12:44;2.25;;;1.95;;
20118;SDS011;10220;42.716;23.306;2022-10-31T01:15:11;2.30;;;1.50;;
20118;SDS011;10220;42.716;23.306;2022-10-31T01:17:39;3.42;;;2.17;;
20118;SDS011;10220;42.716;23.306;2022-10-31T01:20:05;2.30;;;1.75;;
20118;SDS011;10220;42.716;23.306;2022-10-31T01:22:32;4.00;;;2.42;;
20118;SDS011;10220;42.716;23.306;2022-10-31T01:24:58;3.92;;;2.47;;
20118;SDS011;10220;42.716;23.306;2022-10-31T01:27:23;4.82;;;1.73;;
20118;SDS011;10220;42.716;23.306;2022-10-31T01:29:49;4.90;;;2.28;;
20118;SDS011;10220;42.716;23.306;2022-10-31T01:32:14;3.45;;;2.05;;
20118;SDS011;10220;42.716;23.306;2022-10-31T01:34:40;3.47;;;1.50;;
20118;SDS011;10220;42.716;23.306;2022-10-31T01:37:05;3.67;;;1.98;;
20118;SDS011;10220;42.716;23.306;2022-10-31T01:39:30;2.17;;;1.92;;
20118;SDS011;10220;42.716;23.306;2022-10-31T01:41:56;2.95;;;2.08;;
20118;SDS011;10220;42.716;23.306;2022-10-31T01:46:48;5.68;;;2.63;;
20118;SDS011;10220;42.716;23.306;2022-10-31T01:49:31;3.78;;;1.83;;
20118;SDS011;10220;42.716;23.306;2022-10-31T01:52:03;8.13;;;2.13;;
20118;SDS011;10220;42.716;23.306;2022-10-31T01:54:36;3.90;;;2.58;;
20118;SDS011;10220;42.716;23.306;2022-10-31T01:57:05;4.93;;;2.88;;
20118;SDS011;10220;42.716;23.306;2022-10-31T01:59:34;6.53;;;2.70;;
20118;SDS011;10220;42.716;23.306;2022-10-31T02:02:05;5.40;;;3.03;;
20118;SDS011;10220;42.716;23.306;2022-10-31T02:04:31;4.40;;;2.65;;
20118;SDS011;10220;42.716;23.306;2022-10-31T02:07:05;4.93;;;2.70;;
20118;SDS011;10220;42.716;23.306;2022-10-31T02:09:35;4.95;;;3.67;;
20118;SDS011;10220;42.716;23.306;2022-10-31T02:12:02;4.25;;;2.90;;
20118;SDS011;10220;42.716;23.306;2022-10-31T02:14:30;4.07;;;2.95;;
20118;SDS011;10220;42.716;23.306;2022-10-31T02:16:56;7.13;;;3.25;;
20118;SDS011;10220;42.716;23.306;2022-10-31T02:19:46;3.67;;;2.95;;
20118;SDS011;10220;42.716;23.306;2022-10-31T02:24:58;6.57;;;3.67;;
20118;SDS011;10220;42.716;23.306;2022-10-31T02:43:48;4.10;;;2.92;;
20118;SDS011;10220;42.716;23.306;2022-10-31T02:46:31;4.15;;;2.88;;
20118;SDS011;10220;42.716;23.306;2022-10-31T02:49:18;4.72;;;2.72;;
20118;SDS011;10220;42.716;23.306;2022-10-31T02:51:57;7.13;;;3.40;;
20118;SDS011;10220;42.716;23.306;2022-10-31T02:54:24;4.72;;;3.00;;
20118;SDS011;10220;42.716;23.306;2022-10-31T02:56:52;3.85;;;2.90;;
20118;SDS011;10220;42.716;23.306;2022-10-31T02:59:22;5.05;;;3.80;;
20118;SDS011;10220;42.716;23.306;2022-10-31T03:12:18;5.05;;;3.25;;
20118;SDS011;10220;42.716;23.306;2022-10-31T03:14:53;5.20;;;3.70;;
20118;SDS011;10220;42.716;23.306;2022-10-31T03:17:33;5.57;;;3.88;;
20118;SDS011;10220;42.716;23.306;2022-10-31T03:20:02;7.07;;;3.75;;
20118;SDS011;10220;42.716;23.306;2022-10-31T03:22:31;3.58;;;2.70;;
20118;SDS011;10220;42.716;23.306;2022-10-31T03:24:58;7.75;;;3.67;;
20118;SDS011;10220;42.716;23.306;2022-10-31T03:27:27;8.68;;;3.13;;
20118;SDS011;10220;42.716;23.306;2022-10-31T03:29:57;5.35;;;3.42;;
20118;SDS011;10220;42.716;23.306;2022-10-31T03:32:34;4.35;;;2.58;;
20118;SDS011;10220;42.716;23.306;2022-10-31T03:35:15;9.68;;;3.65;;
20118;SDS011;10220;42.716;23.306;2022-10-31T03:37:44;7.07;;;3.15;;
20118;SDS011;10220;42.716;23.306;2022-10-31T03:40:11;5.40;;;3.05;;
20118;SDS011;10220;42.716;23.306;2022-10-31T03:42:40;4.35;;;2.47;;
20118;SDS011;10220;42.716;23.306;2022-10-31T03:45:15;4.43;;;3.92;;
20118;SDS011;10220;42.716;23.306;2022-10-31T03:47:46;5.93;;;3.45;;
20118;SDS011;10220;42.716;23.306;2022-10-31T03:50:12;4.75;;;3.83;;
20118;SDS011;10220;42.716;23.306;2022-10-31T03:58:27;4.10;;;3.03;;
20118;SDS011;10220;42.716;23.306;2022-10-31T04:00:57;4.63;;;2.70;;
20118;SDS011;10220;42.716;23.306;2022-10-31T04:03:26;6.63;;;2.88;;
20118;SDS011;10220;42.716;23.306;2022-10-31T04:05:56;2.53;;;2.17;;
20118;SDS011;10220;42.716;23.306;2022-10-31T04:08:29;4.32;;;3.08;;
20118;SDS011;10220;42.716;23.306;2022-10-31T04:10:57;6.07;;;3.00;;
20118;SDS011;10220;42.716;23.306;2022-10-31T04:13:28;5.55;;;4.20;;
20118;SDS011;10220;42.716;23.306;2022-10-31T04:15:56;5.25;;;2.85;;
20118;SDS011;10220;42.716;23.306;2022-10-31T04:18:22;6.20;;;3.60;;
20118;SDS011;10220;42.716;23.306;2022-10-31T04:20:49;6.05;;;4.00;;
20118;SDS011;10220;42.716;23.306;2022-10-31T04:23:25;12.48;;;4.05;;
20118;SDS011;10220;42.716;23.306;2022-10-31T04:25:51;3.38;;;3.08;;
20118;SDS011;10220;42.716;23.306;2022-10-31T04:28:17;8.13;;;4.32;;
20118;SDS011;10220;42.716;23.306;2022-10-31T04:30:43;12.10;;;4.38;;
20118;SDS011;10220;42.716;23.306;2022-10-31T04:33:08;5.53;;;3.55;;
20118;SDS011;10220;42.716;23.306;2022-10-31T04:35:34;5.38;;;3.55;;
20118;SDS011;10220;42.716;23.306;2022-10-31T04:37:59;4.53;;;3.40;;
20118;SDS011;10220;42.716;23.306;2022-10-31T04:40:24;6.93;;;4.32;;
20118;SDS011;10220;42.716;23.306;2022-10-31T04:42:50;5.95;;;3.75;;
20118;SDS011;10220;42.716;23.306;2022-10-31T04:45:15;8.50;;;4.20;;
20118;SDS011;10220;42.716;23.306;2022-10-31T04:47:41;6.30;;;3.80;;
20118;SDS011;10220;42.716;23.306;2022-10-31T04:50:06;3.78;;;2.65;;
20118;SDS011;10220;42.716;23.306;2022-10-31T04:52:32;5.45;;;2.85;;
20118;SDS011;10220;42.716;23.306;2022-10-31T04:54:57;5.07;;;3.60;;
20118;SDS011;10220;42.716;23.306;2022-10-31T04:57:23;11.23;;;3.05;;
20118;SDS011;10220;42.716;23.306;2022-10-31T04:59:48;6.03;;;3.20;;
20118;SDS011;10220;42.716;23.306;2022-10-31T05:02:14;6.13;;;3.78;;
20118;SDS011;10220;42.716;23.306;2022-10-31T05:04:39;7.88;;;5.43;;
20118;SDS011;10220;42.716;23.306;2022-10-31T05:07:04;12.98;;;6.85;;
20118;SDS011;10220;42.716;23.306;2022-10-31T05:09:30;11.88;;;4.82;;
20118;SDS011;10220;42.716;23.306;2022-10-31T05:11:55;15.88;;;5.50;;
20118;SDS011;10220;42.716;23.306;2022-10-31T05:14:21;7.05;;;5.22;;
20118;SDS011;10220;42.716;23.306;2022-10-31T05:16:46;8.70;;;4.72;;
20118;SDS011;10220;42.716;23.306;2022-10-31T05:19:11;16.00;;;6.32;;
20118;SDS011;10220;42.716;23.306;2022-10-31T05:21:37;4.75;;;4.30;;
20118;SDS011;10220;42.716;23.306;2022-10-31T05:24:02;9.00;;;4.05;;
20118;SDS011;10220;42.716;23.306;2022-10-31T05:26:28;7.03;;;4.18;;
20118;SDS011;10220;42.716;23.306;2022-10-31T05:28:53;7.50;;;3.92;;
20118;SDS011;10220;42.716;23.306;2022-10-31T05:31:19;8.50;;;3.92;;
20118;SDS011;10220;42.716;23.306;2022-10-31T05:33:44;15.77;;;5.95;;
20118;SDS011;10220;42.716;23.306;2022-10-31T05:36:09;18.52;;;5.60;;
20118;SDS011;10220;42.716;23.306;2022-10-31T05:38:35;16.88;;;6.70;;
20118;SDS011;10220;42.716;23.306;2022-10-31T05:41:00;25.63;;;5.85;;
20118;SDS011;10220;42.716;23.306;2022-10-31T05:43:26;20.65;;;5.70;;
20118;SDS011;10220;42.716;23.306;2022-10-31T05:45:55;7.53;;;4.85;;
20118;SDS011;10220;42.716;23.306;2022-10-31T05:48:21;19.90;;;11.07;;
20118;SDS011;10220;42.716;23.306;2022-10-31T05:50:47;33.70;;;15.82;;
20118;SDS011;10220;42.716;23.306;2022-10-31T05:53:14;31.02;;;17.80;;
20118;SDS011;10220;42.716;23.306;2022-10-31T05:55:40;12.48;;;7.55;;
20118;SDS011;10220;42.716;23.306;2022-10-31T05:58:08;23.23;;;12.63;;
20118;SDS011;10220;42.716;23.306;2022-10-31T06:00:34;48.47;;;24.73;;
20118;SDS011;10220;42.716;23.306;2022-10-31T06:03:03;43.95;;;21.92;;
20118;SDS011;10220;42.716;23.306;2022-10-31T06:05:31;49.38;;;21.15;;
20118;SDS011;10220;42.716;23.306;2022-10-31T06:07:56;32.55;;;13.95;;
20118;SDS011;10220;42.716;23.306;2022-10-31T06:10:22;18.42;;;11.77;;
20118;SDS011;10220;42.716;23.306;2022-10-31T06:12:48;26.48;;;13.65;;
20118;SDS011;10220;42.716;23.306;2022-10-31T06:15:14;43.72;;;19.33;;
20118;SDS011;10220;42.716;23.306;2022-10-31T06:17:40;33.50;;;16.77;;
20118;SDS011;10220;42.716;23.306;2022-10-31T06:20:05;50.15;;;21.10;;
20118;SDS011;10220;42.716;23.306;2022-10-31T06:22:32;86.15;;;39.35;;
20118;SDS011;10220;42.716;23.306;2022-10-31T06:24:57;29.92;;;14.10;;
20118;SDS011;10220;42.716;23.306;2022-10-31T06:27:23;28.95;;;16.33;;
20118;SDS011;10220;42.716;23.306;2022-10-31T06:29:48;42.20;;;20.15;;
20118;SDS011;10220;42.716;23.306;2022-10-31T06:32:14;65.18;;;31.15;;
20118;SDS011;10220;42.716;23.306;2022-10-31T06:34:40;99.03;;;52.38;;
20118;SDS011;10220;42.716;23.306;2022-10-31T06:37:06;66.75;;;35.63;;
20118;SDS011;10220;42.716;23.306;2022-10-31T06:39:33;17.58;;;8.32;;
20118;SDS011;10220;42.716;23.306;2022-10-31T06:41:58;48.92;;;24.45;;
20118;SDS011;10220;42.716;23.306;2022-10-31T06:44:24;7.57;;;5.43;;
20118;SDS011;10220;42.716;23.306;2022-10-31T06:46:49;39.75;;;17.80;;
20118;SDS011;10220;42.716;23.306;2022-10-31T06:49:15;23.13;;;11.25;;
20118;SDS011;10220;42.716;23.306;2022-10-31T06:51:40;43.80;;;24.08;;
20118;SDS011;10220;42.716;23.306;2022-10-31T06:54:06;85.78;;;46.63;;
20118;SDS011;10220;42.716;23.306;2022-10-31T06:56:31;84.72;;;41.03;;
20118;SDS011;10220;42.716;23.306;2022-10-31T06:58:57;48.15;;;25.17;;
20118;SDS011;10220;42.716;23.306;2022-10-31T07:01:22;64.63;;;38.47;;
20118;SDS011;10220;42.716;23.306;2022-10-31T07:03:47;27.92;;;8.65;;
20118;SDS011;10220;42.716;23.306;2022-10-31T07:06:13;48.60;;;23.98;;
20118;SDS011;10220;42.716;23.306;2022-10-31T07:08:38;12.63;;;6.00;;
20118;SDS011;10220;42.716;23.306;2022-10-31T07:11:04;24.73;;;14.60;;
20118;SDS011;10220;42.716;23.306;2022-10-31T07:13:29;21.48;;;12.05;;
20118;SDS011;10220;42.716;23.306;2022-10-31T07:15:58;24.42;;;14.45;;
20118;SDS011;10220;42.716;23.306;2022-10-31T07:18:26;34.97;;;16.77;;
20118;SDS011;10220;42.716;23.306;2022-10-31T07:20:51;77.10;;;41.08;;
20118;SDS011;10220;42.716;23.306;2022-10-31T07:23:17;32.78;;;17.88;;
20118;SDS011;10220;42.716;23.306;2022-10-31T07:25:43;9.65;;;5.63;;
20118;SDS011;10220;42.716;23.306;2022-10-31T07:28:09;22.05;;;8.40;;
20118;SDS011;10220;42.716;23.306;2022-10-31T07:30:35;117.10;;;65.07;;
20118;SDS011;10220;42.716;23.306;2022-10-31T07:33:01;62.58;;;32.17;;
20118;SDS011;10220;42.716;23.306;2022-10-31T07:35:27;118.95;;;57.63;;
20118;SDS011;10220;42.716;23.306;2022-10-31T07:37:54;60.80;;;35.25;;
20118;SDS011;10220;42.716;23.306;2022-10-31T07:40:20;76.88;;;38.03;;
20118;SDS011;10220;42.716;23.306;2022-10-31T07:42:47;50.80;;;27.48;;
20118;SDS011;10220;42.716;23.306;2022-10-31T07:45:16;95.57;;;49.30;;
20118;SDS011;10220;42.716;23.306;2022-10-31T07:47:52;64.97;;;36.33;;
20118;SDS011;10220;42.716;23.306;2022-10-31T07:50:19;34.95;;;21.88;;
20118;SDS011;10220;42.716;23.306;2022-10-31T07:52:46;34.45;;;21.73;;
20118;SDS011;10220;42.716;23.306;2022-10-31T07:55:12;37.75;;;20.35;;
20118;SDS011;10220;42.716;23.306;2022-10-31T07:57:38;21.58;;;13.07;;
20118;SDS011;10220;42.716;23.306;2022-10-31T08:00:07;61.50;;;33.35;;
20118;SDS011;10220;42.716;23.306;2022-10-31T08:02:34;72.45;;;39.50;;
20118;SDS011;10220;42.716;23.306;2022-10-31T08:04:59;45.38;;;23.05;;
20118;SDS011;10220;42.716;23.306;2022-10-31T08:07:26;19.33;;;9.82;;
20118;SDS011;10220;42.716;23.306;2022-10-31T08:09:52;27.65;;;14.27;;
20118;SDS011;10220;42.716;23.306;2022-10-31T08:12:18;18.50;;;9.50;;
20118;SDS011;10220;42.716;23.306;2022-10-31T08:14:44;11.05;;;7.25;;
20118;SDS011;10220;42.716;23.306;2022-10-31T08:17:09;51.35;;;29.45;;
20118;SDS011;10220;42.716;23.306;2022-10-31T08:19:35;13.10;;;8.32;;
20118;SDS011;10220;42.716;23.306;2022-10-31T08:22:00;50.45;;;26.55;;
20118;SDS011;10220;42.716;23.306;2022-10-31T08:24:26;23.35;;;13.80;;
20118;SDS011;10220;42.716;23.306;2022-10-31T08:26:51;20.80;;;14.18;;
20118;SDS011;10220;42.716;23.306;2022-10-31T08:29:17;14.02;;;9.50;;
20118;SDS011;10220;42.716;23.306;2022-10-31T08:31:42;9.27;;;5.60;;
20118;SDS011;10220;42.716;23.306;2022-10-31T08:34:08;84.50;;;47.35;;
20118;SDS011;10220;42.716;23.306;2022-10-31T08:36:34;45.65;;;29.33;;
20118;SDS011;10220;42.716;23.306;2022-10-31T08:38:59;15.55;;;9.60;;
20118;SDS011;10220;42.716;23.306;2022-10-31T08:41:25;40.38;;;23.60;;
20118;SDS011;10220;42.716;23.306;2022-10-31T08:43:50;14.05;;;9.23;;
20118;SDS011;10220;42.716;23.306;2022-10-31T08:46:16;13.30;;;8.57;;
20118;SDS011;10220;42.716;23.306;2022-10-31T08:48:41;10.35;;;5.97;;
20118;SDS011;10220;42.716;23.306;2022-10-31T08:51:08;19.80;;;10.57;;
20118;SDS011;10220;42.716;23.306;2022-10-31T08:53:34;60.50;;;34.15;;
20118;SDS011;10220;42.716;23.306;2022-10-31T08:55:59;11.75;;;6.07;;
20118;SDS011;10220;42.716;23.306;2022-10-31T08:58:24;11.88;;;7.03;;
20118;SDS011;10220;42.716;23.306;2022-10-31T09:00:51;9.10;;;6.35;;
20118;SDS011;10220;42.716;23.306;2022-10-31T09:03:21;8.13;;;5.50;;
20118;SDS011;10220;42.716;23.306;2022-10-31T09:05:54;15.15;;;9.35;;
20118;SDS011;10220;42.716;23.306;2022-10-31T09:08:21;16.10;;;10.63;;
20118;SDS011;10220;42.716;23.306;2022-10-31T09:10:46;11.95;;;6.65;;
20118;SDS011;10220;42.716;23.306;2022-10-31T09:13:13;11.20;;;6.95;;
20118;SDS011;10220;42.716;23.306;2022-10-31T09:15:41;19.35;;;5.50;;
20118;SDS011;10220;42.716;23.306;2022-10-31T09:18:09;11.45;;;6.35;;
20118;SDS011;10220;42.716;23.306;2022-10-31T09:20:38;14.70;;;9.68;;
20118;SDS011;10220;42.716;23.306;2022-10-31T09:23:05;17.25;;;8.02;;
20118;SDS011;10220;42.716;23.306;2022-10-31T09:25:32;7.20;;;5.45;;
20118;SDS011;10220;42.716;23.306;2022-10-31T09:27:59;6.78;;;4.20;;
20118;SDS011;10220;42.716;23.306;2022-10-31T09:30:26;8.30;;;5.32;;
20118;SDS011;10220;42.716;23.306;2022-10-31T09:32:54;8.70;;;5.00;;
20118;SDS011;10220;42.716;23.306;2022-10-31T09:35:23;5.90;;;4.85;;
20118;SDS011;10220;42.716;23.306;2022-10-31T09:40:23;7.72;;;3.88;;
20118;SDS011;10220;42.716;23.306;2022-10-31T09:45:35;7.80;;;4.90;;
20118;SDS011;10220;42.716;23.306;2022-10-31T09:48:39;7.72;;;4.47;;
20118;SDS011;10220;42.716;23.306;2022-10-31T09:51:07;11.32;;;4.35;;
20118;SDS011;10220;42.716;23.306;2022-10-31T09:53:44;5.85;;;3.65;;
20118;SDS011;10220;42.716;23.306;2022-10-31T09:56:15;3.97;;;3.50;;
20118;SDS011;10220;42.716;23.306;2022-10-31T09:58:49;6.82;;;4.55;;
20118;SDS011;10220;42.716;23.306;2022-10-31T10:03:53;3.22;;;2.92;;
20118;SDS011;10220;42.716;23.306;2022-10-31T10:06:24;4.00;;;2.88;;
20118;SDS011;10220;42.716;23.306;2022-10-31T10:08:53;8.57;;;5.05;;
20118;SDS011;10220;42.716;23.306;2022-10-31T10:14:18;5.45;;;3.22;;
20118;SDS011;10220;42.716;23.306;2022-10-31T10:25:37;7.90;;;4.40;;
20118;SDS011;10220;42.716;23.306;2022-10-31T10:35:17;3.30;;;2.65;;
20118;SDS011;10220;42.716;23.306;2022-10-31T10:37:44;5.35;;;2.42;;
20118;SDS011;10220;42.716;23.306;2022-10-31T10:40:16;2.53;;;2.33;;
20118;SDS011;10220;42.716;23.306;2022-10-31T10:42:56;4.20;;;2.85;;
20118;SDS011;10220;42.716;23.306;2022-10-31T10:48:56;5.88;;;2.20;;
20118;SDS011;10220;42.716;23.306;2022-10-31T10:52:06;3.80;;;2.47;;
20118;SDS011;10220;42.716;23.306;2022-10-31T10:59:36;3.75;;;1.67;;
20118;SDS011;10220;42.716;23.306;2022-10-31T11:02:03;1.67;;;1.55;;
20118;SDS011;10220;42.716;23.306;2022-10-31T11:04:40;3.58;;;1.98;;
20118;SDS011;10220;42.716;23.306;2022-10-31T11:07:07;4.50;;;1.55;;
20118;SDS011;10220;42.716;23.306;2022-10-31T11:09:34;2.42;;;1.48;;
20118;SDS011;10220;42.716;23.306;2022-10-31T11:12:08;5.72;;;2.13;;
20118;SDS011;10220;42.716;23.306;2022-10-31T11:14:50;3.83;;;2.17;;
20118;SDS011;10220;42.716;23.306;2022-10-31T11:17:31;2.92;;;2.35;;
20118;SDS011;10220;42.716;23.306;2022-10-31T11:20:01;2.25;;;1.58;;
20118;SDS011;10220;42.716;23.306;2022-10-31T11:22:28;2.10;;;1.23;;
20118;SDS011;10220;42.716;23.306;2022-10-31T11:24:53;2.28;;;2.00;;
20118;SDS011;10220;42.716;23.306;2022-10-31T11:27:23;2.60;;;2.17;;
20118;SDS011;10220;42.716;23.306;2022-10-31T11:29:50;6.32;;;1.70;;
20118;SDS011;10220;42.716;23.306;2022-10-31T11:32:22;6.03;;;2.17;;
20118;SDS011;10220;42.716;23.306;2022-10-31T11:35:09;1.90;;;1.58;;
20118;SDS011;10220;42.716;23.306;2022-10-31T11:37:40;2.72;;;1.80;;
20118;SDS011;10220;42.716;23.306;2022-10-31T11:40:19;3.00;;;1.75;;
20118;SDS011;10220;42.716;23.306;2022-10-31T11:42:47;3.22;;;1.65;;
20118;SDS011;10220;42.716;23.306;2022-10-31T11:47:51;1.90;;;1.67;;
20118;SDS011;10220;42.716;23.306;2022-10-31T11:50:21;10.68;;;2.15;;
20118;SDS011;10220;42.716;23.306;2022-10-31T11:52:49;2.20;;;1.48;;
20118;SDS011;10220;42.716;23.306;2022-10-31T11:55:17;2.15;;;1.95;;
20118;SDS011;10220;42.716;23.306;2022-10-31T11:57:56;1.58;;;1.20;;
20118;SDS011;10220;42.716;23.306;2022-10-31T12:02:49;2.90;;;1.42;;
20118;SDS011;10220;42.716;23.306;2022-10-31T12:05:19;3.13;;;1.90;;
20118;SDS011;10220;42.716;23.306;2022-10-31T12:07:50;2.58;;;1.63;;
20118;SDS011;10220;42.716;23.306;2022-10-31T12:10:15;3.08;;;1.95;;
20118;SDS011;10220;42.716;23.306;2022-10-31T12:12:53;5.80;;;1.67;;
20118;SDS011;10220;42.716;23.306;2022-10-31T12:15:42;2.97;;;2.08;;
20118;SDS011;10220;42.716;23.306;2022-10-31T12:18:25;2.13;;;1.48;;
20118;SDS011;10220;42.716;23.306;2022-10-31T12:29:56;3.65;;;2.30;;
20118;SDS011;10220;42.716;23.306;2022-10-31T12:37:50;5.80;;;2.28;;
20118;SDS011;10220;42.716;23.306;2022-10-31T12:59:47;4.32;;;2.00;;
20118;SDS011;10220;42.716;23.306;2022-10-31T13:02:23;3.58;;;1.63;;
20118;SDS011;10220;42.716;23.306;2022-10-31T13:04:57;4.05;;;1.77;;
20118;SDS011;10220;42.716;23.306;2022-10-31T13:13:02;4.47;;;2.25;;
20118;SDS011;10220;42.716;23.306;2022-10-31T13:15:35;3.22;;;2.20;;
20118;SDS011;10220;42.716;23.306;2022-10-31T13:18:14;6.20;;;2.35;;
20118;SDS011;10220;42.716;23.306;2022-10-31T13:20:49;3.17;;;2.00;;
20118;SDS011;10220;42.716;23.306;2022-10-31T13:25:56;3.22;;;2.08;;
20118;SDS011;10220;42.716;23.306;2022-10-31T13:31:08;6.32;;;2.05;;
20118;SDS011;10220;42.716;23.306;2022-10-31T13:43:59;1.58;;;1.48;;
20118;SDS011;10220;42.716;23.306;2022-10-31T13:48:57;2.80;;;1.60;;
20118;SDS011;10220;42.716;23.306;2022-10-31T13:51:26;3.17;;;1.80;;
20118;SDS011;10220;42.716;23.306;2022-10-31T13:53:57;1.55;;;1.27;;
20118;SDS011;10220;42.716;23.306;2022-10-31T13:56:32;3.30;;;1.25;;
20118;SDS011;10220;42.716;23.306;2022-10-31T13:59:03;2.13;;;1.58;;
20118;SDS011;10220;42.716;23.306;2022-10-31T14:01:35;5.38;;;1.35;;
20118;SDS011;10220;42.716;23.306;2022-10-31T14:04:19;1.02;;;0.93;;
20118;SDS011;10220;42.716;23.306;2022-10-31T14:09:49;2.45;;;0.90;;
20118;SDS011;10220;42.716;23.306;2022-10-31T14:12:30;1.92;;;1.00;;
20118;SDS011;10220;42.716;23.306;2022-10-31T14:17:49;2.45;;;1.85;;
20118;SDS011;10220;42.716;23.306;2022-10-31T14:22:41;3.80;;;1.83;;
20118;SDS011;10220;42.716;23.306;2022-10-31T14:27:52;2.70;;;1.23;;
20118;SDS011;10220;42.716;23.306;2022-10-31T14:30:22;3.28;;;1.50;;
20118;SDS011;10220;42.716;23.306;2022-10-31T14:32:50;1.85;;;1.30;;
20118;SDS011;10220;42.716;23.306;2022-10-31T14:35:18;4.60;;;1.75;;
20118;SDS011;10220;42.716;23.306;2022-10-31T14:51:44;4.00;;;2.17;;
20118;SDS011;10220;42.716;23.306;2022-10-31T14:54:18;4.53;;;1.60;;
20118;SDS011;10220;42.716;23.306;2022-10-31T14:57:06;17.02;;;2.83;;
20118;SDS011;10220;42.716;23.306;2022-10-31T14:59:39;9.90;;;2.47;;
20118;SDS011;10220;42.716;23.306;2022-10-31T15:02:16;11.95;;;2.00;;
20118;SDS011;10220;42.716;23.306;2022-10-31T15:04:51;13.30;;;2.88;;
20118;SDS011;10220;42.716;23.306;2022-10-31T15:09:57;6.82;;;3.25;;
20118;SDS011;10220;42.716;23.306;2022-10-31T15:12:26;7.65;;;2.30;;
20118;SDS011;10220;42.716;23.306;2022-10-31T15:14:53;12.43;;;2.53;;
20118;SDS011;10220;42.716;23.306;2022-10-31T15:17:20;10.45;;;3.40;;
20118;SDS011;10220;42.716;23.306;2022-10-31T15:19:46;11.18;;;3.03;;
20118;SDS011;10220;42.716;23.306;2022-10-31T15:22:16;14.27;;;3.65;;
20118;SDS011;10220;42.716;23.306;2022-10-31T15:24:43;10.38;;;2.78;;
20118;SDS011;10220;42.716;23.306;2022-10-31T15:27:12;9.45;;;2.53;;
20118;SDS011;10220;42.716;23.306;2022-10-31T15:29:47;15.98;;;3.50;;
20118;SDS011;10220;42.716;23.306;2022-10-31T15:32:26;7.07;;;3.53;;
20118;SDS011;10220;42.716;23.306;2022-10-31T15:34:53;6.70;;;2.88;;
20118;SDS011;10220;42.716;23.306;2022-10-31T15:37:24;12.70;;;3.28;;
20118;SDS011;10220;42.716;23.306;2022-10-31T15:39:50;9.63;;;4.15;;
20118;SDS011;10220;42.716;23.306;2022-10-31T15:47:38;4.55;;;3.03;;
20118;SDS011;10220;42.716;23.306;2022-10-31T15:52:53;8.13;;;2.30;;
20118;SDS011;10220;42.716;23.306;2022-10-31T15:55:20;5.22;;;3.15;;
20118;SDS011;10220;42.716;23.306;2022-10-31T15:57:52;15.20;;;2.30;;
20118;SDS011;10220;42.716;23.306;2022-10-31T16:00:30;11.30;;;6.03;;
20118;SDS011;10220;42.716;23.306;2022-10-31T16:03:19;7.80;;;3.58;;
20118;SDS011;10220;42.716;23.306;2022-10-31T16:05:50;5.57;;;3.38;;
20118;SDS011;10220;42.716;23.306;2022-10-31T16:10:51;6.63;;;2.60;;
20118;SDS011;10220;42.716;23.306;2022-10-31T16:13:17;7.95;;;3.47;;
20118;SDS011;10220;42.716;23.306;2022-10-31T16:15:58;8.57;;;3.25;;
20118;SDS011;10220;42.716;23.306;2022-10-31T16:18:26;7.47;;;2.78;;
20118;SDS011;10220;42.716;23.306;2022-10-31T16:20:53;7.65;;;3.08;;
20118;SDS011;10220;42.716;23.306;2022-10-31T16:23:21;13.75;;;2.40;;
20118;SDS011;10220;42.716;23.306;2022-10-31T16:25:49;6.45;;;2.78;;
20118;SDS011;10220;42.716;23.306;2022-10-31T16:28:18;6.60;;;4.35;;
20118;SDS011;10220;42.716;23.306;2022-10-31T16:30:49;7.82;;;3.55;;
20118;SDS011;10220;42.716;23.306;2022-10-31T16:33:20;11.48;;;3.65;;
20118;SDS011;10220;42.716;23.306;2022-10-31T16:35:46;7.80;;;2.97;;
20118;SDS011;10220;42.716;23.306;2022-10-31T16:38:12;8.93;;;3.30;;
20118;SDS011;10220;42.716;23.306;2022-10-31T16:40:38;10.38;;;4.18;;
20118;SDS011;10220;42.716;23.306;2022-10-31T16:43:04;9.18;;;4.25;;
20118;SDS011;10220;42.716;23.306;2022-10-31T16:45:30;10.65;;;6.65;;
20118;SDS011;10220;42.716;23.306;2022-10-31T16:48:09;7.32;;;3.95;;
20118;SDS011;10220;42.716;23.306;2022-10-31T16:50:47;13.07;;;3.95;;
20118;SDS011;10220;42.716;23.306;2022-10-31T16:53:14;7.45;;;3.55;;
20118;SDS011;10220;42.716;23.306;2022-10-31T16:55:41;6.38;;;4.60;;
20118;SDS011;10220;42.716;23.306;2022-10-31T16:58:12;11.55;;;5.60;;
20118;SDS011;10220;42.716;23.306;2022-10-31T17:00:41;10.90;;;5.43;;
20118;SDS011;10220;42.716;23.306;2022-10-31T17:03:07;17.42;;;5.80;;
20118;SDS011;10220;42.716;23.306;2022-10-31T17:05:32;28.10;;;11.73;;
20118;SDS011;10220;42.716;23.306;2022-10-31T17:07:58;16.05;;;8.55;;
20118;SDS011;10220;42.716;23.306;2022-10-31T17:10:24;12.88;;;4.93;;
20118;SDS011;10220;42.716;23.306;2022-10-31T17:12:51;17.92;;;5.63;;
20118;SDS011;10220;42.716;23.306;2022-10-31T17:15:21;18.13;;;4.72;;
20118;SDS011;10220;42.716;23.306;2022-10-31T17:17:55;15.45;;;8.68;;
20118;SDS011;10220;42.716;23.306;2022-10-31T17:20:27;17.67;;;7.97;;
20118;SDS011;10220;42.716;23.306;2022-10-31T17:22:55;16.48;;;5.38;;
20118;SDS011;10220;42.716;23.306;2022-10-31T17:25:23;9.57;;;5.25;;
20118;SDS011;10220;42.716;23.306;2022-10-31T17:27:51;8.00;;;5.53;;
20118;SDS011;10220;42.716;23.306;2022-10-31T17:30:17;13.75;;;5.82;;
20118;SDS011;10220;42.716;23.306;2022-10-31T17:32:44;17.63;;;4.82;;